sensor_id;sensor_type;location;lat;lon;timestamp;P1;durP1;ratioP1;P2;durP2;ratioP2
16426;SDS011;8322;-33.900;151.170;2023-07-13T00:02:19;5.32;;;3.97;;
16426;SDS011;8322;-33.900;151.170;2023-07-13T00:04:48;5.70;;;3.53;;
16426;SDS011;8322;-33.900;151.170;2023-07-13T00:07:18;5.38;;;3.25;;
16426;SDS011;8322;-33.900;151.170;2023-07-13T00:09:47;6.50;;;3.78;;
16426;SDS011;8322;-33.900;151.170;2023-07-13T00:12:23;7.30;;;3.33;;
16426;SDS011;8322;-33.900;151.170;2023-07-13T00:14:53;6.00;;;3.50;;
16426;SDS011;8322;-33.900;151.170;2023-07-13T00:17:24;9.10;;;4.07;;
16426;SDS011;8322;-33.900;151.170;2023-07-13T00:19:55;5.80;;;3.40;;
16426;SDS011;8322;-33.900;151.170;2023-07-13T00:22:24;5.22;;;3.47;;
16426;SDS011;8322;-33.900;151.170;2023-07-13T00:24:54;3.67;;;3.10;;
16426;SDS011;8322;-33.900;151.170;2023-07-13T00:27:24;7.60;;;4.20;;
16426;SDS011;8322;-33.900;151.170;2023-07-13T00:29:55;6.07;;;3.50;;
16426;SDS011;8322;-33.900;151.170;2023-07-13T00:32:27;4.18;;;2.85;;
16426;SDS011;8322;-33.900;151.170;2023-07-13T00:34:56;6.25;;;2.92;;
16426;SDS011;8322;-33.900;151.170;2023-07-13T00:37:26;6.18;;;2.90;;
16426;SDS011;8322;-33.900;151.170;2023-07-13T00:39:55;4.93;;;2.90;;
16426;SDS011;8322;-33.900;151.170;2023-07-13T00:42:25;3.97;;;2.60;;
16426;SDS011;8322;-33.900;151.170;2023-07-13T00:45:04;3.92;;;2.85;;
16426;SDS011;8322;-33.900;151.170;2023-07-13T00:47:37;3.33;;;2.30;;
16426;SDS011;8322;-33.900;151.170;2023-07-13T00:50:07;5.57;;;2.58;;
16426;SDS011;8322;-33.900;151.170;2023-07-13T00:52:38;5.70;;;2.80;;
16426;SDS011;8322;-33.900;151.170;2023-07-13T00:55:09;6.22;;;3.08;;
16426;SDS011;8322;-33.900;151.170;2023-07-13T00:57:40;3.05;;;2.30;;
16426;SDS011;8322;-33.900;151.170;2023-07-13T01:00:10;7.65;;;2.30;;
16426;SDS011;8322;-33.900;151.170;2023-07-13T01:02:41;4.70;;;2.50;;
16426;SDS011;8322;-33.900;151.170;2023-07-13T01:05:12;4.65;;;2.30;;
16426;SDS011;8322;-33.900;151.170;2023-07-13T01:07:42;3.63;;;2.72;;
16426;SDS011;8322;-33.900;151.170;2023-07-13T01:13:04;3.67;;;2.50;;
16426;SDS011;8322;-33.900;151.170;2023-07-13T01:15:35;4.40;;;2.40;;
16426;SDS011;8322;-33.900;151.170;2023-07-13T01:18:08;4.78;;;2.58;;
16426;SDS011;8322;-33.900;151.170;2023-07-13T01:20:39;4.25;;;2.25;;
16426;SDS011;8322;-33.900;151.170;2023-07-13T01:23:11;4.05;;;2.00;;
16426;SDS011;8322;-33.900;151.170;2023-07-13T01:25:40;4.97;;;2.40;;
16426;SDS011;8322;-33.900;151.170;2023-07-13T01:28:10;5.00;;;2.50;;
16426;SDS011;8322;-33.900;151.170;2023-07-13T01:30:40;4.50;;;2.05;;
16426;SDS011;8322;-33.900;151.170;2023-07-13T01:33:11;3.65;;;2.20;;
16426;SDS011;8322;-33.900;151.170;2023-07-13T01:35:42;3.00;;;1.77;;
16426;SDS011;8322;-33.900;151.170;2023-07-13T01:38:16;3.33;;;2.05;;
16426;SDS011;8322;-33.900;151.170;2023-07-13T01:40:46;4.25;;;2.40;;
16426;SDS011;8322;-33.900;151.170;2023-07-13T01:43:16;3.53;;;2.22;;
16426;SDS011;8322;-33.900;151.170;2023-07-13T01:45:45;2.92;;;1.92;;
16426;SDS011;8322;-33.900;151.170;2023-07-13T01:48:15;4.32;;;1.90;;
16426;SDS011;8322;-33.900;151.170;2023-07-13T01:50:46;4.88;;;1.80;;
16426;SDS011;8322;-33.900;151.170;2023-07-13T01:53:18;3.67;;;1.75;;
16426;SDS011;8322;-33.900;151.170;2023-07-13T01:55:47;6.07;;;2.53;;
16426;SDS011;8322;-33.900;151.170;2023-07-13T01:58:17;4.50;;;2.75;;
16426;SDS011;8322;-33.900;151.170;2023-07-13T02:00:48;4.80;;;2.10;;
16426;SDS011;8322;-33.900;151.170;2023-07-13T02:03:17;4.45;;;2.47;;
16426;SDS011;8322;-33.900;151.170;2023-07-13T02:05:47;4.25;;;1.70;;
16426;SDS011;8322;-33.900;151.170;2023-07-13T02:08:18;5.35;;;2.22;;
16426;SDS011;8322;-33.900;151.170;2023-07-13T02:10:48;5.00;;;2.50;;
16426;SDS011;8322;-33.900;151.170;2023-07-13T02:13:17;3.35;;;1.65;;
16426;SDS011;8322;-33.900;151.170;2023-07-13T02:15:46;3.38;;;1.40;;
16426;SDS011;8322;-33.900;151.170;2023-07-13T02:18:18;2.83;;;1.77;;
16426;SDS011;8322;-33.900;151.170;2023-07-13T02:20:48;4.10;;;1.73;;
16426;SDS011;8322;-33.900;151.170;2023-07-13T02:23:19;2.60;;;1.58;;
16426;SDS011;8322;-33.900;151.170;2023-07-13T02:25:49;3.03;;;1.50;;
16426;SDS011;8322;-33.900;151.170;2023-07-13T02:31:05;3.33;;;1.63;;
16426;SDS011;8322;-33.900;151.170;2023-07-13T02:33:35;3.90;;;1.63;;
16426;SDS011;8322;-33.900;151.170;2023-07-13T02:36:04;3.60;;;1.90;;
16426;SDS011;8322;-33.900;151.170;2023-07-13T02:38:36;3.50;;;2.08;;
16426;SDS011;8322;-33.900;151.170;2023-07-13T02:41:06;6.00;;;1.73;;
16426;SDS011;8322;-33.900;151.170;2023-07-13T02:43:38;6.40;;;2.22;;
16426;SDS011;8322;-33.900;151.170;2023-07-13T02:46:07;3.25;;;2.10;;
16426;SDS011;8322;-33.900;151.170;2023-07-13T02:48:37;3.47;;;1.67;;
16426;SDS011;8322;-33.900;151.170;2023-07-13T02:51:07;4.47;;;1.98;;
16426;SDS011;8322;-33.900;151.170;2023-07-13T02:53:38;3.45;;;1.80;;
16426;SDS011;8322;-33.900;151.170;2023-07-13T02:56:08;4.07;;;2.42;;
16426;SDS011;8322;-33.900;151.170;2023-07-13T02:58:37;4.10;;;2.42;;
16426;SDS011;8322;-33.900;151.170;2023-07-13T03:01:08;4.60;;;2.20;;
16426;SDS011;8322;-33.900;151.170;2023-07-13T03:03:38;3.97;;;1.98;;
16426;SDS011;8322;-33.900;151.170;2023-07-13T03:06:07;4.05;;;2.42;;
16426;SDS011;8322;-33.900;151.170;2023-07-13T03:08:38;4.55;;;2.55;;
16426;SDS011;8322;-33.900;151.170;2023-07-13T03:11:09;4.80;;;2.30;;
16426;SDS011;8322;-33.900;151.170;2023-07-13T03:13:39;4.63;;;1.70;;
16426;SDS011;8322;-33.900;151.170;2023-07-13T03:16:09;5.30;;;2.42;;
16426;SDS011;8322;-33.900;151.170;2023-07-13T03:18:39;5.03;;;1.80;;
16426;SDS011;8322;-33.900;151.170;2023-07-13T03:21:08;3.63;;;2.20;;
16426;SDS011;8322;-33.900;151.170;2023-07-13T03:23:39;6.20;;;2.00;;
16426;SDS011;8322;-33.900;151.170;2023-07-13T03:26:10;3.33;;;1.90;;
16426;SDS011;8322;-33.900;151.170;2023-07-13T03:28:40;3.15;;;1.90;;
16426;SDS011;8322;-33.900;151.170;2023-07-13T03:31:10;4.40;;;1.88;;
16426;SDS011;8322;-33.900;151.170;2023-07-13T03:33:40;3.33;;;1.70;;
16426;SDS011;8322;-33.900;151.170;2023-07-13T03:36:12;3.85;;;1.85;;
16426;SDS011;8322;-33.900;151.170;2023-07-13T03:38:44;3.13;;;1.88;;
16426;SDS011;8322;-33.900;151.170;2023-07-13T03:41:14;7.10;;;3.33;;
16426;SDS011;8322;-33.900;151.170;2023-07-13T03:43:44;6.88;;;2.60;;
16426;SDS011;8322;-33.900;151.170;2023-07-13T03:46:15;4.28;;;2.10;;
16426;SDS011;8322;-33.900;151.170;2023-07-13T03:48:45;6.10;;;2.50;;
16426;SDS011;8322;-33.900;151.170;2023-07-13T03:51:16;5.40;;;2.30;;
16426;SDS011;8322;-33.900;151.170;2023-07-13T03:53:47;4.95;;;2.22;;
16426;SDS011;8322;-33.900;151.170;2023-07-13T03:56:17;4.95;;;2.42;;
16426;SDS011;8322;-33.900;151.170;2023-07-13T03:58:48;5.88;;;3.50;;
16426;SDS011;8322;-33.900;151.170;2023-07-13T04:01:19;5.20;;;2.50;;
16426;SDS011;8322;-33.900;151.170;2023-07-13T04:03:49;4.18;;;2.20;;
16426;SDS011;8322;-33.900;151.170;2023-07-13T04:06:20;3.30;;;1.92;;
16426;SDS011;8322;-33.900;151.170;2023-07-13T04:08:52;2.90;;;1.83;;
16426;SDS011;8322;-33.900;151.170;2023-07-13T04:11:23;6.47;;;2.25;;
16426;SDS011;8322;-33.900;151.170;2023-07-13T04:13:53;7.57;;;2.80;;
16426;SDS011;8322;-33.900;151.170;2023-07-13T04:16:23;3.08;;;1.70;;
16426;SDS011;8322;-33.900;151.170;2023-07-13T04:18:54;5.60;;;2.38;;
16426;SDS011;8322;-33.900;151.170;2023-07-13T04:21:25;3.88;;;1.90;;
16426;SDS011;8322;-33.900;151.170;2023-07-13T04:23:57;4.70;;;2.10;;
16426;SDS011;8322;-33.900;151.170;2023-07-13T04:26:27;4.47;;;2.00;;
16426;SDS011;8322;-33.900;151.170;2023-07-13T04:28:57;5.93;;;2.50;;
16426;SDS011;8322;-33.900;151.170;2023-07-13T04:31:26;3.58;;;1.90;;
16426;SDS011;8322;-33.900;151.170;2023-07-13T04:33:56;3.22;;;1.60;;
16426;SDS011;8322;-33.900;151.170;2023-07-13T04:36:26;4.57;;;2.00;;
16426;SDS011;8322;-33.900;151.170;2023-07-13T04:38:57;4.95;;;1.83;;
16426;SDS011;8322;-33.900;151.170;2023-07-13T04:41:27;4.10;;;1.52;;
16426;SDS011;8322;-33.900;151.170;2023-07-13T04:44:00;2.92;;;1.80;;
16426;SDS011;8322;-33.900;151.170;2023-07-13T04:46:30;4.47;;;2.00;;
16426;SDS011;8322;-33.900;151.170;2023-07-13T04:49:03;3.25;;;1.52;;
16426;SDS011;8322;-33.900;151.170;2023-07-13T04:51:33;2.40;;;1.48;;
16426;SDS011;8322;-33.900;151.170;2023-07-13T04:54:05;4.55;;;1.77;;
16426;SDS011;8322;-33.900;151.170;2023-07-13T04:56:35;5.80;;;1.95;;
16426;SDS011;8322;-33.900;151.170;2023-07-13T04:59:05;6.90;;;1.65;;
16426;SDS011;8322;-33.900;151.170;2023-07-13T05:01:35;5.93;;;2.15;;
16426;SDS011;8322;-33.900;151.170;2023-07-13T05:04:05;4.15;;;1.50;;
16426;SDS011;8322;-33.900;151.170;2023-07-13T05:06:35;4.78;;;1.48;;
16426;SDS011;8322;-33.900;151.170;2023-07-13T05:09:07;4.15;;;2.42;;
16426;SDS011;8322;-33.900;151.170;2023-07-13T05:11:38;4.40;;;1.83;;
16426;SDS011;8322;-33.900;151.170;2023-07-13T05:14:08;2.88;;;1.58;;
16426;SDS011;8322;-33.900;151.170;2023-07-13T05:16:38;2.70;;;1.75;;
16426;SDS011;8322;-33.900;151.170;2023-07-13T05:19:08;4.40;;;2.17;;
16426;SDS011;8322;-33.900;151.170;2023-07-13T05:21:38;5.70;;;2.50;;
16426;SDS011;8322;-33.900;151.170;2023-07-13T05:24:09;3.80;;;1.65;;
16426;SDS011;8322;-33.900;151.170;2023-07-13T05:26:39;6.55;;;2.10;;
16426;SDS011;8322;-33.900;151.170;2023-07-13T05:29:08;3.70;;;1.55;;
16426;SDS011;8322;-33.900;151.170;2023-07-13T05:31:38;2.95;;;1.42;;
16426;SDS011;8322;-33.900;151.170;2023-07-13T05:34:11;2.55;;;1.60;;
16426;SDS011;8322;-33.900;151.170;2023-07-13T05:36:40;2.95;;;1.75;;
16426;SDS011;8322;-33.900;151.170;2023-07-13T05:39:14;1.70;;;1.30;;
16426;SDS011;8322;-33.900;151.170;2023-07-13T05:41:46;3.53;;;1.70;;
16426;SDS011;8322;-33.900;151.170;2023-07-13T05:44:16;3.67;;;1.50;;
16426;SDS011;8322;-33.900;151.170;2023-07-13T05:46:46;2.58;;;1.40;;
16426;SDS011;8322;-33.900;151.170;2023-07-13T05:49:16;2.60;;;1.60;;
16426;SDS011;8322;-33.900;151.170;2023-07-13T05:51:46;2.65;;;1.70;;
16426;SDS011;8322;-33.900;151.170;2023-07-13T05:54:17;2.28;;;1.50;;
16426;SDS011;8322;-33.900;151.170;2023-07-13T05:56:47;2.65;;;1.38;;
16426;SDS011;8322;-33.900;151.170;2023-07-13T05:59:18;2.83;;;1.58;;
16426;SDS011;8322;-33.900;151.170;2023-07-13T06:01:47;3.10;;;1.33;;
16426;SDS011;8322;-33.900;151.170;2023-07-13T06:04:18;2.50;;;1.50;;
16426;SDS011;8322;-33.900;151.170;2023-07-13T06:06:47;2.88;;;1.63;;
16426;SDS011;8322;-33.900;151.170;2023-07-13T06:09:19;2.83;;;1.80;;
16426;SDS011;8322;-33.900;151.170;2023-07-13T06:11:48;2.72;;;1.48;;
16426;SDS011;8322;-33.900;151.170;2023-07-13T06:14:17;5.22;;;2.90;;
16426;SDS011;8322;-33.900;151.170;2023-07-13T06:16:47;8.07;;;3.55;;
16426;SDS011;8322;-33.900;151.170;2023-07-13T06:19:16;4.55;;;3.40;;
16426;SDS011;8322;-33.900;151.170;2023-07-13T06:21:46;5.05;;;3.00;;
16426;SDS011;8322;-33.900;151.170;2023-07-13T06:24:15;8.07;;;2.72;;
16426;SDS011;8322;-33.900;151.170;2023-07-13T06:26:47;5.22;;;2.67;;
16426;SDS011;8322;-33.900;151.170;2023-07-13T06:29:16;5.93;;;2.80;;
16426;SDS011;8322;-33.900;151.170;2023-07-13T06:31:46;7.75;;;3.42;;
16426;SDS011;8322;-33.900;151.170;2023-07-13T06:34:15;4.93;;;2.80;;
16426;SDS011;8322;-33.900;151.170;2023-07-13T06:36:45;9.30;;;3.45;;
16426;SDS011;8322;-33.900;151.170;2023-07-13T06:39:14;8.85;;;3.60;;
16426;SDS011;8322;-33.900;151.170;2023-07-13T06:41:43;9.88;;;5.47;;
16426;SDS011;8322;-33.900;151.170;2023-07-13T06:44:15;9.38;;;4.03;;
16426;SDS011;8322;-33.900;151.170;2023-07-13T06:46:44;7.72;;;4.03;;
16426;SDS011;8322;-33.900;151.170;2023-07-13T06:49:14;9.63;;;3.95;;
16426;SDS011;8322;-33.900;151.170;2023-07-13T06:51:43;16.75;;;7.50;;
16426;SDS011;8322;-33.900;151.170;2023-07-13T06:54:13;16.15;;;10.05;;
16426;SDS011;8322;-33.900;151.170;2023-07-13T06:56:42;18.38;;;12.15;;
16426;SDS011;8322;-33.900;151.170;2023-07-13T06:59:15;21.48;;;13.88;;
16426;SDS011;8322;-33.900;151.170;2023-07-13T07:01:45;29.52;;;21.00;;
16426;SDS011;8322;-33.900;151.170;2023-07-13T07:04:14;16.63;;;9.38;;
16426;SDS011;8322;-33.900;151.170;2023-07-13T07:06:43;13.15;;;5.75;;
16426;SDS011;8322;-33.900;151.170;2023-07-13T07:09:13;7.50;;;4.78;;
16426;SDS011;8322;-33.900;151.170;2023-07-13T07:11:43;6.97;;;3.58;;
16426;SDS011;8322;-33.900;151.170;2023-07-13T07:14:12;11.75;;;4.15;;
16426;SDS011;8322;-33.900;151.170;2023-07-13T07:16:43;8.55;;;4.40;;
16426;SDS011;8322;-33.900;151.170;2023-07-13T07:19:13;8.43;;;4.50;;
16426;SDS011;8322;-33.900;151.170;2023-07-13T07:21:42;14.52;;;7.85;;
16426;SDS011;8322;-33.900;151.170;2023-07-13T07:24:12;15.55;;;5.47;;
16426;SDS011;8322;-33.900;151.170;2023-07-13T07:26:41;14.13;;;4.70;;
16426;SDS011;8322;-33.900;151.170;2023-07-13T07:29:11;11.13;;;4.20;;
16426;SDS011;8322;-33.900;151.170;2023-07-13T07:31:40;17.80;;;7.75;;
16426;SDS011;8322;-33.900;151.170;2023-07-13T07:34:11;10.40;;;5.43;;
16426;SDS011;8322;-33.900;151.170;2023-07-13T07:36:41;8.25;;;3.92;;
16426;SDS011;8322;-33.900;151.170;2023-07-13T07:39:10;9.02;;;5.18;;
16426;SDS011;8322;-33.900;151.170;2023-07-13T07:41:40;12.88;;;4.57;;
16426;SDS011;8322;-33.900;151.170;2023-07-13T07:44:09;10.43;;;5.22;;
16426;SDS011;8322;-33.900;151.170;2023-07-13T07:46:39;11.85;;;6.18;;
16426;SDS011;8322;-33.900;151.170;2023-07-13T07:49:09;14.35;;;7.80;;
16426;SDS011;8322;-33.900;151.170;2023-07-13T07:51:40;10.50;;;6.05;;
16426;SDS011;8322;-33.900;151.170;2023-07-13T07:54:09;11.57;;;6.03;;
16426;SDS011;8322;-33.900;151.170;2023-07-13T07:56:39;12.55;;;5.88;;
16426;SDS011;8322;-33.900;151.170;2023-07-13T07:59:08;9.75;;;5.13;;
16426;SDS011;8322;-33.900;151.170;2023-07-13T08:01:38;11.02;;;5.93;;
16426;SDS011;8322;-33.900;151.170;2023-07-13T08:04:07;12.32;;;7.72;;
16426;SDS011;8322;-33.900;151.170;2023-07-13T08:06:40;17.63;;;10.82;;
16426;SDS011;8322;-33.900;151.170;2023-07-13T08:09:10;15.23;;;8.55;;
16426;SDS011;8322;-33.900;151.170;2023-07-13T08:11:39;12.30;;;7.60;;
16426;SDS011;8322;-33.900;151.170;2023-07-13T08:14:08;15.68;;;8.48;;
16426;SDS011;8322;-33.900;151.170;2023-07-13T08:16:38;11.88;;;7.90;;
16426;SDS011;8322;-33.900;151.170;2023-07-13T08:19:07;14.15;;;7.80;;
16426;SDS011;8322;-33.900;151.170;2023-07-13T08:21:37;13.15;;;6.78;;
16426;SDS011;8322;-33.900;151.170;2023-07-13T08:24:10;14.70;;;7.40;;
16426;SDS011;8322;-33.900;151.170;2023-07-13T08:26:39;12.65;;;7.10;;
16426;SDS011;8322;-33.900;151.170;2023-07-13T08:29:09;14.13;;;7.20;;
16426;SDS011;8322;-33.900;151.170;2023-07-13T08:31:39;10.20;;;6.55;;
16426;SDS011;8322;-33.900;151.170;2023-07-13T08:34:08;13.07;;;7.22;;
16426;SDS011;8322;-33.900;151.170;2023-07-13T08:36:38;9.55;;;5.80;;
16426;SDS011;8322;-33.900;151.170;2023-07-13T08:39:09;10.38;;;6.68;;
16426;SDS011;8322;-33.900;151.170;2023-07-13T08:41:39;14.05;;;7.28;;
16426;SDS011;8322;-33.900;151.170;2023-07-13T08:44:14;12.57;;;7.07;;
16426;SDS011;8322;-33.900;151.170;2023-07-13T08:46:48;11.93;;;6.80;;
16426;SDS011;8322;-33.900;151.170;2023-07-13T08:49:19;11.18;;;6.72;;
16426;SDS011;8322;-33.900;151.170;2023-07-13T08:51:50;11.43;;;6.47;;
16426;SDS011;8322;-33.900;151.170;2023-07-13T08:54:26;11.88;;;7.70;;
16426;SDS011;8322;-33.900;151.170;2023-07-13T08:56:57;26.90;;;17.55;;
16426;SDS011;8322;-33.900;151.170;2023-07-13T08:59:28;14.98;;;9.60;;
16426;SDS011;8322;-33.900;151.170;2023-07-13T09:02:08;13.15;;;10.07;;
16426;SDS011;8322;-33.900;151.170;2023-07-13T09:04:44;20.00;;;13.25;;
16426;SDS011;8322;-33.900;151.170;2023-07-13T09:07:18;21.30;;;14.75;;
16426;SDS011;8322;-33.900;151.170;2023-07-13T09:09:53;21.90;;;14.35;;
16426;SDS011;8322;-33.900;151.170;2023-07-13T09:12:25;11.30;;;7.43;;
16426;SDS011;8322;-33.900;151.170;2023-07-13T09:14:57;10.13;;;5.75;;
16426;SDS011;8322;-33.900;151.170;2023-07-13T09:17:27;12.43;;;5.60;;
16426;SDS011;8322;-33.900;151.170;2023-07-13T09:19:58;9.68;;;5.50;;
16426;SDS011;8322;-33.900;151.170;2023-07-13T09:22:29;22.08;;;14.00;;
16426;SDS011;8322;-33.900;151.170;2023-07-13T09:25:04;24.67;;;16.23;;
16426;SDS011;8322;-33.900;151.170;2023-07-13T09:27:35;38.33;;;25.17;;
16426;SDS011;8322;-33.900;151.170;2023-07-13T09:30:12;31.40;;;19.73;;
16426;SDS011;8322;-33.900;151.170;2023-07-13T09:32:47;18.02;;;11.27;;
16426;SDS011;8322;-33.900;151.170;2023-07-13T09:35:19;19.25;;;11.93;;
16426;SDS011;8322;-33.900;151.170;2023-07-13T09:37:50;20.40;;;12.43;;
16426;SDS011;8322;-33.900;151.170;2023-07-13T09:40:24;18.35;;;12.05;;
16426;SDS011;8322;-33.900;151.170;2023-07-13T09:42:54;12.95;;;7.70;;
16426;SDS011;8322;-33.900;151.170;2023-07-13T09:45:27;10.20;;;6.90;;
16426;SDS011;8322;-33.900;151.170;2023-07-13T09:48:04;13.80;;;7.18;;
16426;SDS011;8322;-33.900;151.170;2023-07-13T09:50:34;12.77;;;7.40;;
16426;SDS011;8322;-33.900;151.170;2023-07-13T09:53:03;14.00;;;8.75;;
16426;SDS011;8322;-33.900;151.170;2023-07-13T09:55:35;16.90;;;8.20;;
16426;SDS011;8322;-33.900;151.170;2023-07-13T09:58:09;14.88;;;8.25;;
16426;SDS011;8322;-33.900;151.170;2023-07-13T10:00:41;10.68;;;7.65;;
16426;SDS011;8322;-33.900;151.170;2023-07-13T10:03:16;10.30;;;7.07;;
16426;SDS011;8322;-33.900;151.170;2023-07-13T10:05:46;11.77;;;7.10;;
16426;SDS011;8322;-33.900;151.170;2023-07-13T10:08:20;12.13;;;6.28;;
16426;SDS011;8322;-33.900;151.170;2023-07-13T10:10:57;9.73;;;5.63;;
16426;SDS011;8322;-33.900;151.170;2023-07-13T10:13:27;7.22;;;4.72;;
16426;SDS011;8322;-33.900;151.170;2023-07-13T10:16:01;7.80;;;5.30;;
16426;SDS011;8322;-33.900;151.170;2023-07-13T10:18:32;12.52;;;6.75;;
16426;SDS011;8322;-33.900;151.170;2023-07-13T10:21:14;11.02;;;6.10;;
16426;SDS011;8322;-33.900;151.170;2023-07-13T10:23:44;9.75;;;6.45;;
16426;SDS011;8322;-33.900;151.170;2023-07-13T10:26:18;9.80;;;6.55;;
16426;SDS011;8322;-33.900;151.170;2023-07-13T10:28:50;14.25;;;7.75;;
16426;SDS011;8322;-33.900;151.170;2023-07-13T10:31:21;11.20;;;5.40;;
16426;SDS011;8322;-33.900;151.170;2023-07-13T10:33:50;6.95;;;5.00;;
16426;SDS011;8322;-33.900;151.170;2023-07-13T10:36:23;8.82;;;4.88;;
16426;SDS011;8322;-33.900;151.170;2023-07-13T10:39:15;9.65;;;5.60;;
16426;SDS011;8322;-33.900;151.170;2023-07-13T10:41:46;9.73;;;5.22;;
16426;SDS011;8322;-33.900;151.170;2023-07-13T10:44:19;9.30;;;5.18;;
16426;SDS011;8322;-33.900;151.170;2023-07-13T10:46:52;8.52;;;5.18;;
16426;SDS011;8322;-33.900;151.170;2023-07-13T10:49:23;10.63;;;5.78;;
16426;SDS011;8322;-33.900;151.170;2023-07-13T10:51:52;9.80;;;5.88;;
16426;SDS011;8322;-33.900;151.170;2023-07-13T10:54:26;9.27;;;6.28;;
16426;SDS011;8322;-33.900;151.170;2023-07-13T10:57:07;9.35;;;6.47;;
16426;SDS011;8322;-33.900;151.170;2023-07-13T10:59:38;10.50;;;7.32;;
16426;SDS011;8322;-33.900;151.170;2023-07-13T11:02:10;11.13;;;7.25;;
16426;SDS011;8322;-33.900;151.170;2023-07-13T11:04:40;13.20;;;7.40;;
16426;SDS011;8322;-33.900;151.170;2023-07-13T11:07:11;12.75;;;6.80;;
16426;SDS011;8322;-33.900;151.170;2023-07-13T11:09:51;12.55;;;7.13;;
16426;SDS011;8322;-33.900;151.170;2023-07-13T11:12:28;13.48;;;7.18;;
16426;SDS011;8322;-33.900;151.170;2023-07-13T11:15:27;8.55;;;5.50;;
16426;SDS011;8322;-33.900;151.170;2023-07-13T11:17:57;11.60;;;6.10;;
16426;SDS011;8322;-33.900;151.170;2023-07-13T11:20:32;8.38;;;5.60;;
16426;SDS011;8322;-33.900;151.170;2023-07-13T11:23:09;9.10;;;5.50;;
16426;SDS011;8322;-33.900;151.170;2023-07-13T11:25:41;12.00;;;6.35;;
16426;SDS011;8322;-33.900;151.170;2023-07-13T11:28:17;9.88;;;5.80;;
16426;SDS011;8322;-33.900;151.170;2023-07-13T11:30:47;8.52;;;5.53;;
16426;SDS011;8322;-33.900;151.170;2023-07-13T11:33:18;9.90;;;5.72;;
16426;SDS011;8322;-33.900;151.170;2023-07-13T11:35:52;8.65;;;5.70;;
16426;SDS011;8322;-33.900;151.170;2023-07-13T11:38:23;8.52;;;5.82;;
16426;SDS011;8322;-33.900;151.170;2023-07-13T11:40:58;10.90;;;6.18;;
16426;SDS011;8322;-33.900;151.170;2023-07-13T11:43:30;9.77;;;6.30;;
16426;SDS011;8322;-33.900;151.170;2023-07-13T11:46:12;15.07;;;7.38;;
16426;SDS011;8322;-33.900;151.170;2023-07-13T11:48:43;12.20;;;7.40;;
16426;SDS011;8322;-33.900;151.170;2023-07-13T11:51:15;11.13;;;6.95;;
16426;SDS011;8322;-33.900;151.170;2023-07-13T11:53:46;9.23;;;5.85;;
16426;SDS011;8322;-33.900;151.170;2023-07-13T11:56:18;11.68;;;6.40;;
16426;SDS011;8322;-33.900;151.170;2023-07-13T11:58:48;11.73;;;6.65;;
16426;SDS011;8322;-33.900;151.170;2023-07-13T12:01:20;10.65;;;6.63;;
16426;SDS011;8322;-33.900;151.170;2023-07-13T12:03:50;12.98;;;6.68;;
16426;SDS011;8322;-33.900;151.170;2023-07-13T12:06:24;10.75;;;6.43;;
16426;SDS011;8322;-33.900;151.170;2023-07-13T12:08:57;11.32;;;5.88;;
16426;SDS011;8322;-33.900;151.170;2023-07-13T12:11:29;10.65;;;6.78;;
16426;SDS011;8322;-33.900;151.170;2023-07-13T12:13:59;10.65;;;6.35;;
16426;SDS011;8322;-33.900;151.170;2023-07-13T12:16:29;11.13;;;6.97;;
16426;SDS011;8322;-33.900;151.170;2023-07-13T12:18:59;10.35;;;6.65;;
16426;SDS011;8322;-33.900;151.170;2023-07-13T12:21:30;11.57;;;6.15;;
16426;SDS011;8322;-33.900;151.170;2023-07-13T12:24:00;9.38;;;6.68;;
16426;SDS011;8322;-33.900;151.170;2023-07-13T12:26:32;11.18;;;6.53;;
16426;SDS011;8322;-33.900;151.170;2023-07-13T12:29:01;10.65;;;6.63;;
16426;SDS011;8322;-33.900;151.170;2023-07-13T12:31:34;11.18;;;6.60;;
16426;SDS011;8322;-33.900;151.170;2023-07-13T12:34:06;11.45;;;6.45;;
16426;SDS011;8322;-33.900;151.170;2023-07-13T12:36:37;9.32;;;6.30;;
16426;SDS011;8322;-33.900;151.170;2023-07-13T12:39:14;12.18;;;6.63;;
16426;SDS011;8322;-33.900;151.170;2023-07-13T12:41:46;11.20;;;6.10;;
16426;SDS011;8322;-33.900;151.170;2023-07-13T12:44:17;10.65;;;6.72;;
16426;SDS011;8322;-33.900;151.170;2023-07-13T12:46:53;12.90;;;7.00;;
16426;SDS011;8322;-33.900;151.170;2023-07-13T12:49:24;12.18;;;7.18;;
16426;SDS011;8322;-33.900;151.170;2023-07-13T12:51:58;14.23;;;6.38;;
16426;SDS011;8322;-33.900;151.170;2023-07-13T12:54:27;15.18;;;7.43;;
16426;SDS011;8322;-33.900;151.170;2023-07-13T12:57:00;13.07;;;6.65;;
16426;SDS011;8322;-33.900;151.170;2023-07-13T12:59:31;13.50;;;7.18;;
16426;SDS011;8322;-33.900;151.170;2023-07-13T13:02:10;14.65;;;6.88;;
16426;SDS011;8322;-33.900;151.170;2023-07-13T13:04:42;13.25;;;6.63;;
16426;SDS011;8322;-33.900;151.170;2023-07-13T13:07:12;12.07;;;6.93;;
16426;SDS011;8322;-33.900;151.170;2023-07-13T13:09:41;12.48;;;6.88;;
16426;SDS011;8322;-33.900;151.170;2023-07-13T13:12:13;19.67;;;7.18;;
16426;SDS011;8322;-33.900;151.170;2023-07-13T13:14:43;14.52;;;7.03;;
16426;SDS011;8322;-33.900;151.170;2023-07-13T13:17:15;12.82;;;7.18;;
16426;SDS011;8322;-33.900;151.170;2023-07-13T13:19:47;15.27;;;7.38;;
16426;SDS011;8322;-33.900;151.170;2023-07-13T13:22:18;14.52;;;7.43;;
16426;SDS011;8322;-33.900;151.170;2023-07-13T13:24:48;12.48;;;7.00;;
16426;SDS011;8322;-33.900;151.170;2023-07-13T13:27:20;16.65;;;7.20;;
16426;SDS011;8322;-33.900;151.170;2023-07-13T13:29:50;13.38;;;6.57;;
16426;SDS011;8322;-33.900;151.170;2023-07-13T13:32:20;11.60;;;6.53;;
16426;SDS011;8322;-33.900;151.170;2023-07-13T13:34:49;9.85;;;5.80;;
16426;SDS011;8322;-33.900;151.170;2023-07-13T13:37:20;9.60;;;5.95;;
16426;SDS011;8322;-33.900;151.170;2023-07-13T13:39:51;7.18;;;4.80;;
16426;SDS011;8322;-33.900;151.170;2023-07-13T13:42:23;9.30;;;5.38;;
16426;SDS011;8322;-33.900;151.170;2023-07-13T13:44:53;8.63;;;4.65;;
16426;SDS011;8322;-33.900;151.170;2023-07-13T13:47:28;11.35;;;5.07;;
16426;SDS011;8322;-33.900;151.170;2023-07-13T13:49:58;8.13;;;4.72;;
16426;SDS011;8322;-33.900;151.170;2023-07-13T13:52:28;8.00;;;4.43;;
16426;SDS011;8322;-33.900;151.170;2023-07-13T13:54:58;9.65;;;5.30;;
16426;SDS011;8322;-33.900;151.170;2023-07-13T13:57:29;10.38;;;5.68;;
16426;SDS011;8322;-33.900;151.170;2023-07-13T13:59:59;9.82;;;4.65;;
16426;SDS011;8322;-33.900;151.170;2023-07-13T14:02:29;8.32;;;4.47;;
16426;SDS011;8322;-33.900;151.170;2023-07-13T14:04:59;9.55;;;4.80;;
16426;SDS011;8322;-33.900;151.170;2023-07-13T14:07:29;9.00;;;5.28;;
16426;SDS011;8322;-33.900;151.170;2023-07-13T14:09:58;12.65;;;5.50;;
16426;SDS011;8322;-33.900;151.170;2023-07-13T14:12:30;13.80;;;5.55;;
16426;SDS011;8322;-33.900;151.170;2023-07-13T14:15:00;12.05;;;6.00;;
16426;SDS011;8322;-33.900;151.170;2023-07-13T14:17:29;11.73;;;5.95;;
16426;SDS011;8322;-33.900;151.170;2023-07-13T14:19:59;8.73;;;5.60;;
16426;SDS011;8322;-33.900;151.170;2023-07-13T14:22:30;9.07;;;5.28;;
16426;SDS011;8322;-33.900;151.170;2023-07-13T14:24:59;12.10;;;5.40;;
16426;SDS011;8322;-33.900;151.170;2023-07-13T14:27:31;11.63;;;5.43;;
16426;SDS011;8322;-33.900;151.170;2023-07-13T14:30:00;10.73;;;5.82;;
16426;SDS011;8322;-33.900;151.170;2023-07-13T14:32:30;11.00;;;5.43;;
16426;SDS011;8322;-33.900;151.170;2023-07-13T14:34:59;9.07;;;5.40;;
16426;SDS011;8322;-33.900;151.170;2023-07-13T14:37:29;10.70;;;5.32;;
16426;SDS011;8322;-33.900;151.170;2023-07-13T14:39:59;16.63;;;5.45;;
16426;SDS011;8322;-33.900;151.170;2023-07-13T14:42:31;12.40;;;5.82;;
16426;SDS011;8322;-33.900;151.170;2023-07-13T14:45:00;9.57;;;5.57;;